createdAt,value
2019-02-08T00:01:26.689Z,86.65
2019-02-08T00:03:56.095Z,87.13
2019-02-08T00:06:25.538Z,86.13
2019-02-08T00:08:55.005Z,86.61
2019-02-08T00:11:24.494Z,87.04
2019-02-08T00:13:53.900Z,87.25
2019-02-08T00:16:23.886Z,86.81
2019-02-08T00:18:53.341Z,87.47
2019-02-08T00:21:23.057Z,86.95
2019-02-08T00:23:52.452Z,87.60
2019-02-08T00:26:21.843Z,87.58
2019-02-08T00:28:51.437Z,87.74
2019-02-08T00:31:20.902Z,87.30
2019-02-08T00:33:50.301Z,87.48
2019-02-08T00:36:19.747Z,87.55
2019-02-08T00:38:49.219Z,87.80
2019-02-08T00:41:18.706Z,87.54
2019-02-08T00:43:48.169Z,87.78
2019-02-08T00:46:17.645Z,87.67
2019-02-08T00:48:47.885Z,88.25
2019-02-08T00:51:17.316Z,88.29
2019-02-08T00:53:46.804Z,88.71
2019-02-08T00:56:16.350Z,88.72
2019-02-08T00:58:45.863Z,88.55
2019-02-08T01:01:15.258Z,88.58
2019-02-08T01:03:45.038Z,88.97
2019-02-08T01:06:15.127Z,89.91
2019-02-08T01:08:44.516Z,89.91
2019-02-08T01:11:13.887Z,89.79
2019-02-08T01:13:43.420Z,90.35
2019-02-08T01:16:12.891Z,91.22
2019-02-08T01:18:42.277Z,91.53
2019-02-08T01:21:11.678Z,91.92
2019-02-08T01:23:41.561Z,91.24
2019-02-08T01:26:11.097Z,91.35
2019-02-08T01:28:40.877Z,92.08
2019-02-08T01:31:10.446Z,91.60
2019-02-08T01:33:39.824Z,91.39
2019-02-08T01:36:09.234Z,91.94
2019-02-08T01:38:38.699Z,91.88
2019-02-08T01:41:08.284Z,91.52
2019-02-08T01:43:37.709Z,91.22
2019-02-08T01:46:07.093Z,90.38
2019-02-08T01:48:36.555Z,90.48
2019-02-08T01:51:06.286Z,90.53
2019-02-08T01:53:35.680Z,91.05
2019-02-08T01:56:05.073Z,90.36
2019-02-08T01:58:34.845Z,90.59
2019-02-08T02:01:05.016Z,91.92
2019-02-08T02:03:34.402Z,91.01
2019-02-08T02:06:04.011Z,91.79
2019-02-08T02:08:33.504Z,92.04
2019-02-08T02:11:02.875Z,91.94
2019-02-08T02:13:32.409Z,92.52
2019-02-08T02:16:01.997Z,92.12
2019-02-08T02:18:31.367Z,91.87
2019-02-08T02:21:00.924Z,92.73
2019-02-08T02:23:30.397Z,92.63
2019-02-08T02:25:59.910Z,93.44
2019-02-08T02:28:29.308Z,94.01
2019-02-08T02:30:58.683Z,93.56
2019-02-08T02:33:28.131Z,94.54
2019-02-08T02:35:57.651Z,93.88
2019-02-08T02:38:27.018Z,94.74
2019-02-08T02:40:56.404Z,95.75
2019-02-08T02:43:26.149Z,96.31
2019-02-08T02:45:55.629Z,96.44
2019-02-08T02:48:25.105Z,96.24
2019-02-08T02:50:54.726Z,96.46
2019-02-08T02:53:24.892Z,96.61
2019-02-08T02:55:54.276Z,96.99
2019-02-08T02:58:23.786Z,97.58
2019-02-08T03:00:53.399Z,97.67
2019-02-08T03:03:22.756Z,99.09
2019-02-08T03:05:52.168Z,98.76
2019-02-08T03:08:21.657Z,99.11
2019-02-08T03:10:52.373Z,98.96
2019-02-08T03:13:21.804Z,99.16
2019-02-08T03:15:51.155Z,97.68
2019-02-08T03:18:20.628Z,96.54
2019-02-08T03:20:50.155Z,95.68
2019-02-08T03:23:19.525Z,95.41
2019-02-08T03:25:48.989Z,94.57
2019-02-08T03:28:18.404Z,94.78
2019-02-08T03:30:58.577Z,94.66
2019-02-08T03:33:28.312Z,95.29
2019-02-08T03:35:57.807Z,94.52
2019-02-08T03:38:27.153Z,94.29
2019-02-08T03:40:56.579Z,94.05
2019-02-08T03:43:26.053Z,94.62
2019-02-08T03:45:55.533Z,94.94
2019-02-08T03:48:24.977Z,94.77
2019-02-08T03:50:54.355Z,95.18
2019-02-08T03:53:23.933Z,94.20
2019-02-08T03:55:58.278Z,94.97
2019-02-08T03:58:24.549Z,95.84
2019-02-08T04:01:02.820Z,96.07
2019-02-08T04:03:32.498Z,96.29
2019-02-08T04:06:01.930Z,96.92
2019-02-08T04:08:31.449Z,96.79
2019-02-08T04:11:01.041Z,96.32
2019-02-08T04:13:30.427Z,95.92
2019-02-08T04:15:59.857Z,96.09
2019-02-08T04:18:29.356Z,96.30
2019-02-08T04:20:58.831Z,97.14
2019-02-08T04:23:28.349Z,96.14
2019-02-08T04:25:57.723Z,96.27
2019-02-08T04:28:27.214Z,96.63
2019-02-08T04:30:56.905Z,98.17
2019-02-08T04:33:26.337Z,98.20
2019-02-08T04:35:55.712Z,98.09
2019-02-08T04:38:25.229Z,97.84
2019-02-08T04:40:54.706Z,97.74
2019-02-08T04:43:24.084Z,97.69
2019-02-08T04:45:53.572Z,97.59
2019-02-08T04:48:22.959Z,97.13
2019-02-08T04:50:52.328Z,96.91
2019-02-08T04:53:21.847Z,95.41
2019-02-08T04:55:51.322Z,94.00
2019-02-08T04:58:22.092Z,94.34
2019-02-08T05:00:51.661Z,94.29
2019-02-08T05:03:21.123Z,94.64
2019-02-08T05:05:50.694Z,94.85
2019-02-08T05:08:20.131Z,94.72
2019-02-08T05:10:49.502Z,94.63
2019-02-08T05:13:18.981Z,93.30
2019-02-08T05:15:48.502Z,92.30
2019-02-08T05:18:17.886Z,92.39
2019-02-08T05:20:47.231Z,92.39
2019-02-08T05:23:16.917Z,93.18
2019-02-08T05:25:46.397Z,93.06
2019-02-08T05:28:15.763Z,93.25
2019-02-08T05:30:45.178Z,93.15
2019-02-08T05:33:14.651Z,92.89
2019-02-08T05:35:44.124Z,92.83
2019-02-08T05:38:13.714Z,92.50
2019-02-08T05:40:43.104Z,92.23
2019-02-08T05:43:12.564Z,92.08
2019-02-08T05:45:42.083Z,91.84
2019-02-08T05:48:11.475Z,91.33
2019-02-08T05:50:40.833Z,91.92
2019-02-08T05:53:10.394Z,91.73
2019-02-08T05:55:39.854Z,91.77
2019-02-08T05:58:10.320Z,91.96
2019-02-08T06:00:51.166Z,91.08
2019-02-08T06:03:20.783Z,91.84
2019-02-08T06:05:50.419Z,92.04
2019-02-08T06:08:20.039Z,92.61
2019-02-08T06:10:49.494Z,92.87
2019-02-08T06:13:18.905Z,92.78
2019-02-08T06:15:48.313Z,92.51
2019-02-08T06:18:17.777Z,92.64
2019-02-08T06:20:47.250Z,93.34
2019-02-08T06:23:16.662Z,95.00
2019-02-08T06:25:46.035Z,94.86
2019-02-08T06:28:15.520Z,95.12
2019-02-08T06:30:45.152Z,96.05
2019-02-08T06:33:14.538Z,97.18
2019-02-08T06:35:43.928Z,97.51
2019-02-08T06:38:13.564Z,98.17
2019-02-08T06:40:45.552Z,97.30
2019-02-08T06:43:14.938Z,93.44
2019-02-08T06:45:44.559Z,92.14
2019-02-08T06:48:14.494Z,90.96
2019-02-08T06:50:43.860Z,89.05
2019-02-08T06:53:13.617Z,88.88
2019-02-08T06:55:43.175Z,88.30
2019-02-08T06:58:25.990Z,88.48
2019-02-08T07:01:23.711Z,89.91
2019-02-08T07:04:11.927Z,89.74
2019-02-08T07:06:53.054Z,89.54
2019-02-08T07:09:44.311Z,89.53
2019-02-08T07:12:22.175Z,88.59
2019-02-08T07:15:26.449Z,88.26
2019-02-08T07:18:09.010Z,88.25
2019-02-08T07:21:09.638Z,88.97
2019-02-08T07:24:10.278Z,88.52
2019-02-08T07:27:07.952Z,86.93
2019-02-08T07:30:11.805Z,85.40
2019-02-08T07:32:58.947Z,84.16
2019-02-08T07:35:45.833Z,84.60
2019-02-08T07:38:43.687Z,86.61
2019-02-08T07:41:31.281Z,86.83
2019-02-08T07:44:26.028Z,85.76
2019-02-08T07:47:18.019Z,86.91
2019-02-08T07:50:07.033Z,86.16
2019-02-08T07:52:57.794Z,85.48
2019-02-08T07:55:44.911Z,85.59
2019-02-08T07:58:45.859Z,83.13
2019-02-08T08:01:38.775Z,81.22
2019-02-08T08:04:29.215Z,80.35
2019-02-08T08:07:15.591Z,79.89
2019-02-08T08:10:06.286Z,79.62
2019-02-08T08:13:00.370Z,78.45
2019-02-08T08:16:04.087Z,78.76
2019-02-08T08:18:48.909Z,78.79
2019-02-08T08:21:36.955Z,79.17
2019-02-08T08:24:38.653Z,79.38
2019-02-08T08:27:32.774Z,76.93
2019-02-08T08:30:19.033Z,77.35
2019-02-08T08:33:06.160Z,77.96
2019-02-08T08:36:05.186Z,78.36
2019-02-08T08:39:11.538Z,78.79
2019-02-08T08:42:20.326Z,76.74
2019-02-08T08:45:26.354Z,77.13
2019-02-08T08:48:22.611Z,75.17
2019-02-08T08:51:28.643Z,74.33
2019-02-08T08:54:54.487Z,75.64
2019-02-08T08:57:40.884Z,76.92
2019-02-08T09:00:42.242Z,74.69
2019-02-08T09:04:07.439Z,74.40
2019-02-08T09:07:19.141Z,74.37
2019-02-08T09:10:34.223Z,74.62
2019-02-08T09:13:56.642Z,71.66
2019-02-08T09:16:54.048Z,70.24
2019-02-08T09:20:06.145Z,70.78
2019-02-08T09:23:18.752Z,70.14
2019-02-08T09:26:23.730Z,69.73
2019-02-08T09:29:18.213Z,69.49
2019-02-08T09:32:35.357Z,69.29
2019-02-08T09:35:59.856Z,68.02
2019-02-08T09:39:19.331Z,68.93
2019-02-08T09:42:50.519Z,68.32
2019-02-08T09:45:56.409Z,69.67
2019-02-08T09:49:01.450Z,68.74
2019-02-08T09:52:08.213Z,67.60
2019-02-08T09:55:06.560Z,66.79
2019-02-08T09:58:18.548Z,66.70
2019-02-08T10:01:13.153Z,66.22
2019-02-08T10:04:25.994Z,67.69
2019-02-08T10:07:17.421Z,70.37
2019-02-08T10:10:22.820Z,69.46
2019-02-08T10:13:22.988Z,68.02
2019-02-08T10:16:29.089Z,67.43
2019-02-08T10:19:35.031Z,68.00
2019-02-08T10:23:06.388Z,68.28
2019-02-08T10:26:06.748Z,67.45
2019-02-08T10:29:11.782Z,67.47
2019-02-08T10:32:25.480Z,67.48
2019-02-08T10:35:22.807Z,66.97
2019-02-08T10:38:35.416Z,67.12
2019-02-08T10:41:50.915Z,65.48
2019-02-08T10:45:04.329Z,64.77
2019-02-08T10:48:09.889Z,65.49
2019-02-08T10:51:07.744Z,68.29
2019-02-08T10:54:13.877Z,68.86
2019-02-08T10:57:31.021Z,69.25
2019-02-08T11:00:55.479Z,67.77
2019-02-08T11:04:05.727Z,69.20
2019-02-08T11:07:16.612Z,66.57
2019-02-08T11:10:21.500Z,65.02
2019-02-08T11:13:28.753Z,64.45
2019-02-08T11:16:38.709Z,64.73
2019-02-08T11:19:24.936Z,65.42
2019-02-08T11:21:54.948Z,65.41
2019-02-08T11:24:27.879Z,65.46
2019-02-08T11:26:59.578Z,65.56
2019-02-08T11:29:29.241Z,64.58
2019-02-08T11:31:58.692Z,64.47
2019-02-08T11:34:28.225Z,63.11
2019-02-08T11:36:57.674Z,63.56
2019-02-08T11:39:27.140Z,64.58
2019-02-08T11:41:56.864Z,64.56
2019-02-08T11:44:26.343Z,64.18
2019-02-08T11:46:55.732Z,64.91
2019-02-08T11:49:25.235Z,63.98
2019-02-08T11:51:54.727Z,63.07
2019-02-08T11:54:24.100Z,63.31
2019-02-08T11:56:53.789Z,63.65
2019-02-08T11:59:23.271Z,64.08
2019-02-08T12:01:53.204Z,67.01
2019-02-08T12:04:22.681Z,66.94
2019-02-08T12:06:52.055Z,63.66
2019-02-08T12:09:21.679Z,64.35
2019-02-08T12:11:51.643Z,63.41
2019-02-08T12:14:21.106Z,63.89
2019-02-08T12:16:50.586Z,63.63
2019-02-08T12:19:20.391Z,62.68
2019-02-08T12:21:49.778Z,62.41
2019-02-08T12:24:19.343Z,61.67
2019-02-08T12:26:48.973Z,61.99
2019-02-08T12:29:18.342Z,61.68
2019-02-08T12:31:47.719Z,62.11
2019-02-08T12:34:17.238Z,63.19
2019-02-08T12:36:46.721Z,62.16
2019-02-08T12:39:16.138Z,62.23
2019-02-08T12:41:45.816Z,62.08
2019-02-08T12:44:15.375Z,62.97
2019-02-08T12:46:44.920Z,63.56
2019-02-08T12:49:14.436Z,64.24
2019-02-08T12:51:43.912Z,63.74
2019-02-08T12:54:13.378Z,63.95
2019-02-08T12:56:45.692Z,63.61
2019-02-08T12:59:14.024Z,63.02
2019-02-08T13:01:43.536Z,63.60
2019-02-08T13:04:13.106Z,63.64
2019-02-08T13:06:42.482Z,63.35
2019-02-08T13:09:12.625Z,63.60
2019-02-08T13:11:42.311Z,63.89
2019-02-08T13:14:14.007Z,63.33
2019-02-08T13:16:43.383Z,63.40
2019-02-08T13:19:12.900Z,64.27
2019-02-08T13:21:42.578Z,64.28
2019-02-08T13:24:12.054Z,64.15
2019-02-08T13:26:41.630Z,64.55
2019-02-08T13:29:11.107Z,65.39
2019-02-08T13:31:40.480Z,66.91
2019-02-08T13:34:10.108Z,67.55
2019-02-08T13:36:39.601Z,67.11
2019-02-08T13:39:10.235Z,65.98
2019-02-08T13:41:39.641Z,64.72
2019-02-08T13:44:09.156Z,63.90
2019-02-08T13:46:38.625Z,64.02
2019-02-08T13:49:08.052Z,64.49
2019-02-08T13:51:37.423Z,65.80
2019-02-08T13:54:10.282Z,65.67
2019-02-08T13:56:39.782Z,65.89
2019-02-08T13:59:09.190Z,65.98
2019-02-08T14:01:38.576Z,66.77
2019-02-08T14:04:08.087Z,66.57
2019-02-08T14:06:37.589Z,67.91
2019-02-08T14:09:09.582Z,66.84
2019-02-08T14:11:39.095Z,65.70
2019-02-08T14:14:08.577Z,65.54
2019-02-08T14:16:39.357Z,65.69
2019-02-08T14:19:09.010Z,65.84
2019-02-08T14:21:38.474Z,66.84
2019-02-08T14:24:07.857Z,67.29
2019-02-08T14:26:37.331Z,66.91
2019-02-08T14:29:06.829Z,66.41
2019-02-08T14:31:36.345Z,66.54
2019-02-08T14:34:05.969Z,66.45
2019-02-08T14:36:35.361Z,66.38
2019-02-08T14:39:08.255Z,66.59
2019-02-08T14:41:37.779Z,66.14
2019-02-08T14:44:07.424Z,66.93
2019-02-08T14:46:36.791Z,66.89
2019-02-08T14:49:06.701Z,67.80
2019-02-08T14:51:37.135Z,68.30
2019-02-08T14:54:06.810Z,68.35
2019-02-08T14:56:36.283Z,68.91
2019-02-08T14:59:06.078Z,69.32
2019-02-08T15:01:35.502Z,70.16
2019-02-08T15:04:07.459Z,70.35
2019-02-08T15:06:36.702Z,69.60
2019-02-08T15:09:10.488Z,70.18
2019-02-08T15:11:39.909Z,70.39
2019-02-08T15:14:09.428Z,71.02
2019-02-08T15:16:38.940Z,71.45
2019-02-08T15:19:08.328Z,72.35
2019-02-08T15:21:37.719Z,71.29
2019-02-08T15:24:07.250Z,71.21
2019-02-08T15:26:36.757Z,71.71
2019-02-08T15:29:06.312Z,72.38
2019-02-08T15:31:36.077Z,72.92
2019-02-08T15:34:07.267Z,72.98
2019-02-08T15:36:36.661Z,73.91
2019-02-08T15:39:11.183Z,74.41
2019-02-08T15:41:40.753Z,74.27
2019-02-08T15:44:10.160Z,74.71
2019-02-08T15:46:39.555Z,75.19
2019-02-08T15:49:09.015Z,75.16
2019-02-08T15:51:38.579Z,76.00
2019-02-08T15:54:08.003Z,76.66
2019-02-08T15:56:37.924Z,76.83
2019-02-08T15:59:07.579Z,76.87
2019-02-08T16:01:37.190Z,77.28
2019-02-08T16:04:06.656Z,77.61
2019-02-08T16:06:36.051Z,77.84
2019-02-08T16:09:11.493Z,78.05
2019-02-08T16:11:40.964Z,78.24
2019-02-08T16:14:10.646Z,78.27
2019-02-08T16:16:40.158Z,78.25
2019-02-08T16:19:11.379Z,79.04
2019-02-08T16:21:40.757Z,79.45
2019-02-08T16:24:10.386Z,80.02
2019-02-08T16:26:39.840Z,80.38
2019-02-08T16:29:09.319Z,80.61
2019-02-08T16:31:38.865Z,80.97
2019-02-08T16:34:08.445Z,80.71
2019-02-08T16:36:38.058Z,80.95
2019-02-08T16:39:10.529Z,80.83
2019-02-08T16:41:39.973Z,80.90
2019-02-08T16:44:10.145Z,81.71
2019-02-08T16:46:40.472Z,81.97
2019-02-08T16:49:09.933Z,81.72
2019-02-08T16:51:39.338Z,81.80
2019-02-08T16:54:09.132Z,81.88
2019-02-08T16:56:38.607Z,81.70
2019-02-08T16:59:08.288Z,81.38
2019-02-08T17:01:37.738Z,81.62
2019-02-08T17:04:07.323Z,81.82
2019-02-08T17:06:36.807Z,81.87
2019-02-08T17:09:11.910Z,81.90
2019-02-08T17:11:41.571Z,81.75
2019-02-08T17:14:11.168Z,81.58
2019-02-08T17:16:40.829Z,81.56
2019-02-08T17:19:10.221Z,81.18
2019-02-08T17:21:39.710Z,81.33
2019-02-08T17:24:09.237Z,81.76
2019-02-08T17:26:38.699Z,81.80
2019-02-08T17:29:08.101Z,81.44
2019-02-08T17:31:37.754Z,81.64
2019-02-08T17:34:07.146Z,81.77
2019-02-08T17:36:36.546Z,81.73
2019-02-08T17:39:07.893Z,81.64
2019-02-08T17:41:37.385Z,81.32
2019-02-08T17:44:07.040Z,82.03
2019-02-08T17:46:36.523Z,82.15
2019-02-08T17:49:05.994Z,82.19
2019-02-08T17:51:36.911Z,80.87
2019-02-08T17:54:06.494Z,80.60
2019-02-08T17:56:35.910Z,80.72
2019-02-08T17:59:05.420Z,80.58
2019-02-08T18:01:34.897Z,80.27
2019-02-08T18:04:04.274Z,81.20
2019-02-08T18:06:33.696Z,81.69
2019-02-08T18:09:03.226Z,81.75
2019-02-08T18:11:32.607Z,82.26
2019-02-08T18:14:02.194Z,82.17
2019-02-08T18:16:31.697Z,82.84
2019-02-08T18:19:01.118Z,83.34
2019-02-08T18:21:30.500Z,83.48
2019-02-08T18:24:00.139Z,83.77
2019-02-08T18:26:29.571Z,83.35
2019-02-08T18:28:58.949Z,83.41
2019-02-08T18:31:28.375Z,83.95
2019-02-08T18:33:57.839Z,83.99
2019-02-08T18:36:27.306Z,83.89
2019-02-08T18:38:57.375Z,84.04
2019-02-08T18:41:26.913Z,84.24
2019-02-08T18:43:56.387Z,83.87
2019-02-08T18:46:25.900Z,83.35
2019-02-08T18:48:55.287Z,83.38
2019-02-08T18:51:24.778Z,84.71
2019-02-08T18:53:54.498Z,85.34
2019-02-08T18:56:23.959Z,85.21
2019-02-08T18:58:53.465Z,84.16
2019-02-08T19:01:23.133Z,84.21
2019-02-08T19:03:52.493Z,84.39
2019-02-08T19:06:21.893Z,84.80
2019-02-08T19:08:51.569Z,86.14
2019-02-08T19:11:21.047Z,87.16
2019-02-08T19:13:50.508Z,87.99
2019-02-08T19:16:19.976Z,88.71
2019-02-08T19:18:49.450Z,89.21
2019-02-08T19:21:19.003Z,90.08
2019-02-08T19:23:48.638Z,90.69
2019-02-08T19:26:18.375Z,90.66
2019-02-08T19:28:47.922Z,91.24
2019-02-08T19:31:17.344Z,91.02
2019-02-08T19:33:46.834Z,90.94
2019-02-08T19:36:16.315Z,90.33
2019-02-08T19:38:45.744Z,90.33
2019-02-08T19:41:15.114Z,91.45
2019-02-08T19:43:44.604Z,91.99
2019-02-08T19:46:14.147Z,91.44
2019-02-08T19:48:43.502Z,91.38
2019-02-08T19:51:12.897Z,91.09
2019-02-08T19:53:42.631Z,90.83
2019-02-08T19:56:12.080Z,90.18
2019-02-08T19:58:41.482Z,90.95
2019-02-08T20:01:10.996Z,91.90
2019-02-08T20:03:40.478Z,91.49
2019-02-08T20:06:10.163Z,91.33
2019-02-08T20:08:39.569Z,91.04
2019-02-08T20:11:09.101Z,90.87
2019-02-08T20:13:38.470Z,90.80
2019-02-08T20:16:07.904Z,91.49
2019-02-08T20:18:37.386Z,90.29
2019-02-08T20:21:07.144Z,89.42
2019-02-08T20:23:36.572Z,89.36
2019-02-08T20:26:06.116Z,89.80
2019-02-08T20:28:42.115Z,90.02
2019-02-08T20:31:08.045Z,90.12
2019-02-08T20:33:37.411Z,90.80
2019-02-08T20:36:07.017Z,91.87
2019-02-08T20:38:36.714Z,92.37
2019-02-08T20:41:06.291Z,92.71
2019-02-08T20:43:35.676Z,93.25
2019-02-08T20:46:05.111Z,92.44
2019-02-08T20:48:34.589Z,93.53
2019-02-08T20:51:04.093Z,94.33
2019-02-08T20:53:33.596Z,94.83
2019-02-08T20:56:03.173Z,94.75
2019-02-08T20:58:33.227Z,94.97
2019-02-08T21:01:03.026Z,95.43
2019-02-08T21:03:32.602Z,95.94
2019-02-08T21:06:02.150Z,95.22
2019-02-08T21:08:31.889Z,96.45
2019-02-08T21:11:01.267Z,98.84
2019-02-08T21:13:30.856Z,99.48
2019-02-08T21:16:00.375Z,98.92
2019-02-08T21:18:29.741Z,98.37
2019-02-08T21:20:59.125Z,98.30
2019-02-08T21:23:28.799Z,97.22
2019-02-08T21:25:58.250Z,96.88
2019-02-08T21:28:27.642Z,96.17
2019-02-08T21:30:58.135Z,95.92
2019-02-08T21:33:27.663Z,95.59
2019-02-08T21:35:57.062Z,93.74
2019-02-08T21:38:26.594Z,91.80
2019-02-08T21:40:56.074Z,91.61
2019-02-08T21:43:25.438Z,89.48
2019-02-08T21:45:55.070Z,89.90
2019-02-08T21:48:24.655Z,89.29
2019-02-08T21:50:54.292Z,89.21
2019-02-08T21:53:23.737Z,88.61
2019-02-08T21:55:53.226Z,88.33
2019-02-08T21:58:22.715Z,88.12
2019-02-08T22:00:52.234Z,86.31
2019-02-08T22:03:21.627Z,85.41
2019-02-08T22:05:57.888Z,85.01
2019-02-08T22:08:27.365Z,85.11
2019-02-08T22:10:56.821Z,84.86
2019-02-08T22:13:26.393Z,84.74
2019-02-08T22:15:55.769Z,84.17
2019-02-08T22:18:25.382Z,84.52
2019-02-08T22:20:54.904Z,83.95
2019-02-08T22:23:24.284Z,83.85
2019-02-08T22:25:53.667Z,84.01
2019-02-08T22:28:23.310Z,84.14
2019-02-08T22:30:52.789Z,83.91
2019-02-08T22:33:22.583Z,83.94
2019-02-08T22:35:52.177Z,84.11
2019-02-08T22:38:21.766Z,84.75
2019-02-08T22:40:51.233Z,84.73
2019-02-08T22:43:20.814Z,85.04
2019-02-08T22:45:50.241Z,86.44
2019-02-08T22:48:19.700Z,86.98
2019-02-08T22:50:49.290Z,87.15
2019-02-08T22:53:18.795Z,86.33
2019-02-08T22:55:48.307Z,86.34
2019-02-08T22:58:17.775Z,86.59
2019-02-08T23:01:15.307Z,86.35
2019-02-08T23:03:44.827Z,86.39
2019-02-08T23:06:14.391Z,86.79
2019-02-08T23:08:43.793Z,86.05
2019-02-08T23:11:13.307Z,85.47
2019-02-08T23:13:42.797Z,85.43
2019-02-08T23:16:12.861Z,85.39
2019-02-08T23:18:42.374Z,85.59
2019-02-08T23:21:12.207Z,85.77
2019-02-08T23:23:41.972Z,85.62
2019-02-08T23:26:11.476Z,85.29
2019-02-08T23:28:40.877Z,85.67
2019-02-08T23:31:10.464Z,86.03
2019-02-08T23:33:39.897Z,86.21
2019-02-08T23:36:09.393Z,86.66
2019-02-08T23:38:38.871Z,87.80
2019-02-08T23:41:08.385Z,88.57
2019-02-08T23:43:37.774Z,88.11
2019-02-08T23:46:07.265Z,88.00
2019-02-08T23:48:36.810Z,88.19
2019-02-08T23:51:06.419Z,88.85
2019-02-08T23:53:35.792Z,88.68
2019-02-08T23:56:05.621Z,87.77
2019-02-08T23:58:35.105Z,87.94
